Terminal Aerodrome Forecast
Issued by NWS

Current Version | Previous Version | Text Only | Print | Product List | Glossary On
Versions: 1 2 3 4 5 6 7 8 9 10 11 12 13 14 15 16 17 18 19 20 21 22 23 24 25 26 27 28 29 30 31 32 33 34 35 36
000 FTUS41 KOKX 251914 AAA TAFHPN TAF AMD KHPN 251914Z 2519/2618 24010G19KT P6SM SCT200 FM260000 23007KT P6SM FEW250 FM260300 VRB04KT P6SM FEW250 FM261600 26007KT P6SM SCT060 BKN150 AMD NOT SKED=

USA.gov is the U.S. government's official web portal to all federal, state and local government web resources and services.